sensor_id;sensor_type;location;lat;lon;timestamp;pressure;altitude;pressure_sealevel;temperature;humidity
48774;BME280;34576;0.000;0.000;2023-01-27T00:04:14;96731.72;;;15.22;66.26
48774;BME280;34576;0.000;0.000;2023-01-27T00:11:14;96733.09;;;15.29;66.32
48774;BME280;34576;0.000;0.000;2023-01-27T00:18:33;96728.63;;;15.35;65.88
48774;BME280;34576;0.000;0.000;2023-01-27T00:25:33;96722.00;;;15.38;65.53
48774;BME280;34576;0.000;0.000;2023-01-27T00:32:34;96729.47;;;15.41;65.52
48774;BME280;34576;0.000;0.000;2023-01-27T00:39:53;96721.00;;;15.44;65.85
48774;BME280;34576;0.000;0.000;2023-01-27T00:46:53;96709.56;;;15.43;65.85
48774;BME280;34576;0.000;0.000;2023-01-27T00:53:54;96714.88;;;15.43;66.28
48774;BME280;34576;0.000;0.000;2023-01-27T01:00:54;96723.38;;;15.45;66.12
48774;BME280;34576;0.000;0.000;2023-01-27T01:07:56;96731.34;;;15.50;65.95
48774;BME280;34576;0.000;0.000;2023-01-27T01:14:57;96721.25;;;15.47;65.93
48774;BME280;34576;0.000;0.000;2023-01-27T01:21:57;96725.25;;;15.50;65.75
48774;BME280;34576;0.000;0.000;2023-01-27T01:28:57;96727.63;;;15.46;66.01
48774;BME280;34576;0.000;0.000;2023-01-27T01:36:08;96734.25;;;15.44;65.97
48774;BME280;34576;0.000;0.000;2023-01-27T01:43:13;96724.44;;;15.44;66.24
48774;BME280;34576;0.000;0.000;2023-01-27T01:50:14;96708.00;;;15.42;66.36
48774;BME280;34576;0.000;0.000;2023-01-27T02:04:17;96688.63;;;15.36;66.69
48774;BME280;34576;0.000;0.000;2023-01-27T02:11:18;96678.84;;;15.42;66.51
48774;BME280;34576;0.000;0.000;2023-01-27T02:18:18;96686.25;;;15.40;66.36
48774;BME280;34576;0.000;0.000;2023-01-27T02:32:25;96677.00;;;15.48;65.85
48774;BME280;34576;0.000;0.000;2023-01-27T02:39:31;96683.44;;;15.67;63.90
48774;BME280;34576;0.000;0.000;2023-01-27T02:46:33;96676.19;;;15.42;66.15
48774;BME280;34576;0.000;0.000;2023-01-27T02:53:34;96674.06;;;15.44;66.50
48774;BME280;34576;0.000;0.000;2023-01-27T03:00:34;96684.66;;;15.44;66.54
48774;BME280;34576;0.000;0.000;2023-01-27T03:07:34;96677.75;;;15.43;66.46
48774;BME280;34576;0.000;0.000;2023-01-27T03:14:35;96683.38;;;15.47;66.77
48774;BME280;34576;0.000;0.000;2023-01-27T03:21:54;96676.50;;;15.51;66.23
48774;BME280;34576;0.000;0.000;2023-01-27T03:28:56;96682.31;;;15.53;65.60
48774;BME280;34576;0.000;0.000;2023-01-27T03:36:17;96684.72;;;15.54;65.53
48774;BME280;34576;0.000;0.000;2023-01-27T03:43:37;96682.63;;;15.57;65.39
48774;BME280;34576;0.000;0.000;2023-01-27T03:50:57;96678.34;;;15.56;65.25
48774;BME280;34576;0.000;0.000;2023-01-27T03:57:58;96675.72;;;15.56;65.03
48774;BME280;34576;0.000;0.000;2023-01-27T04:05:13;96681.78;;;15.56;64.99
48774;BME280;34576;0.000;0.000;2023-01-27T04:12:32;96707.81;;;15.59;63.63
48774;BME280;34576;0.000;0.000;2023-01-27T04:19:32;96705.66;;;15.56;65.54
48774;BME280;34576;0.000;0.000;2023-01-27T04:26:33;96703.03;;;15.61;65.27
48774;BME280;34576;0.000;0.000;2023-01-27T04:33:34;96687.91;;;15.57;65.91
48774;BME280;34576;0.000;0.000;2023-01-27T04:40:34;96685.56;;;15.65;66.02
48774;BME280;34576;0.000;0.000;2023-01-27T04:47:34;96690.88;;;15.65;66.11
48774;BME280;34576;0.000;0.000;2023-01-27T04:54:35;96691.66;;;15.66;66.13
48774;BME280;34576;0.000;0.000;2023-01-27T05:01:35;96683.44;;;15.67;65.96
48774;BME280;34576;0.000;0.000;2023-01-27T05:08:35;96698.03;;;15.65;66.21
48774;BME280;34576;0.000;0.000;2023-01-27T05:15:35;96697.47;;;15.63;66.89
48774;BME280;34576;0.000;0.000;2023-01-27T05:22:36;96699.59;;;15.61;66.94
48774;BME280;34576;0.000;0.000;2023-01-27T05:29:36;96706.47;;;15.62;66.67
48774;BME280;34576;0.000;0.000;2023-01-27T05:36:36;96724.25;;;15.61;67.57
48774;BME280;34576;0.000;0.000;2023-01-27T05:43:38;96741.50;;;10.01;51.04
48774;BME280;34576;0.000;0.000;2023-01-27T05:50:38;96748.97;;;9.67;48.04
48774;BME280;34576;0.000;0.000;2023-01-27T05:57:39;96734.13;;;14.04;50.78
48774;BME280;34576;0.000;0.000;2023-01-27T06:04:39;96722.56;;;14.37;53.82
48774;BME280;34576;0.000;0.000;2023-01-27T06:11:39;96713.66;;;14.48;55.26
48774;BME280;34576;0.000;0.000;2023-01-27T06:18:40;96719.03;;;14.59;56.10
48774;BME280;34576;0.000;0.000;2023-01-27T06:25:44;96728.16;;;14.68;56.53
48774;BME280;34576;0.000;0.000;2023-01-27T06:32:44;96720.81;;;14.75;57.69
48774;BME280;34576;0.000;0.000;2023-01-27T06:39:45;96718.25;;;14.86;57.91
48774;BME280;34576;0.000;0.000;2023-01-27T06:46:45;96720.69;;;14.92;58.60
48774;BME280;34576;0.000;0.000;2023-01-27T06:53:46;96733.66;;;14.94;58.99
48774;BME280;34576;0.000;0.000;2023-01-27T07:00:46;96745.34;;;14.98;59.42
48774;BME280;34576;0.000;0.000;2023-01-27T07:07:47;96743.25;;;15.00;59.94
48774;BME280;34576;0.000;0.000;2023-01-27T07:14:47;96755.97;;;15.03;60.13
48774;BME280;34576;0.000;0.000;2023-01-27T07:21:47;96760.22;;;15.04;60.58
48774;BME280;34576;0.000;0.000;2023-01-27T07:28:47;96765.78;;;15.02;60.67
48774;BME280;34576;0.000;0.000;2023-01-27T07:35:48;96774.50;;;15.03;60.87
48774;BME280;34576;0.000;0.000;2023-01-27T07:42:48;96785.69;;;15.05;60.80
48774;BME280;34576;0.000;0.000;2023-01-27T07:49:49;96777.72;;;15.05;61.01
48774;BME280;34576;0.000;0.000;2023-01-27T07:56:49;96776.13;;;15.04;60.90
48774;BME280;34576;0.000;0.000;2023-01-27T08:03:49;96773.72;;;15.02;61.08
48774;BME280;34576;0.000;0.000;2023-01-27T08:10:49;96771.34;;;15.01;61.05
48774;BME280;34576;0.000;0.000;2023-01-27T08:17:54;96778.22;;;15.02;60.97
48774;BME280;34576;0.000;0.000;2023-01-27T08:24:54;96801.50;;;15.00;61.42
48774;BME280;34576;0.000;0.000;2023-01-27T08:31:54;96805.22;;;14.99;61.34
48774;BME280;34576;0.000;0.000;2023-01-27T08:38:55;96807.31;;;14.97;61.44
48774;BME280;34576;0.000;0.000;2023-01-27T08:45:55;96825.31;;;14.95;61.24
48774;BME280;34576;0.000;0.000;2023-01-27T08:52:57;96822.72;;;15.00;60.88
48774;BME280;34576;0.000;0.000;2023-01-27T09:00:00;96822.16;;;14.98;60.08
48774;BME280;34576;0.000;0.000;2023-01-27T09:07:01;96819.22;;;14.94;59.83
48774;BME280;34576;0.000;0.000;2023-01-27T09:14:01;96811.00;;;14.91;60.10
48774;BME280;34576;0.000;0.000;2023-01-27T09:21:05;96821.81;;;14.89;59.74
48774;BME280;34576;0.000;0.000;2023-01-27T09:28:05;96832.19;;;14.91;59.44
48774;BME280;34576;0.000;0.000;2023-01-27T09:35:08;96828.44;;;14.87;59.39
48774;BME280;34576;0.000;0.000;2023-01-27T10:10:52;96834.75;;;14.86;58.57
48774;BME280;34576;0.000;0.000;2023-01-27T10:18:01;96838.72;;;14.83;58.55
48774;BME280;34576;0.000;0.000;2023-01-27T10:32:08;96836.84;;;14.83;58.52
48774;BME280;34576;0.000;0.000;2023-01-27T10:46:40;96827.84;;;14.79;57.94
48774;BME280;34576;0.000;0.000;2023-01-27T11:00:56;96811.44;;;14.82;57.54
48774;BME280;34576;0.000;0.000;2023-01-27T11:07:59;96800.59;;;14.84;57.21
48774;BME280;34576;0.000;0.000;2023-01-27T11:15:13;96779.16;;;14.86;57.13
48774;BME280;34576;0.000;0.000;2023-01-27T11:22:22;96813.59;;;14.86;56.98
48774;BME280;34576;0.000;0.000;2023-01-27T11:29:41;96844.31;;;14.87;57.13
48774;BME280;34576;0.000;0.000;2023-01-27T11:36:45;96831.03;;;14.81;57.15
48774;BME280;34576;0.000;0.000;2023-01-27T11:43:45;96829.72;;;14.84;56.85
48774;BME280;34576;0.000;0.000;2023-01-27T11:50:46;96814.63;;;14.84;56.95
48774;BME280;34576;0.000;0.000;2023-01-27T11:57:49;96811.72;;;14.86;57.23
48774;BME280;34576;0.000;0.000;2023-01-27T12:11:52;96795.03;;;14.86;56.86
48774;BME280;34576;0.000;0.000;2023-01-27T12:19:21;96796.13;;;14.90;57.27
48774;BME280;34576;0.000;0.000;2023-01-27T12:26:28;96761.97;;;14.88;57.69
48774;BME280;34576;0.000;0.000;2023-01-27T12:33:29;96768.03;;;14.89;57.66
48774;BME280;34576;0.000;0.000;2023-01-27T12:40:30;96754.81;;;14.89;57.86
48774;BME280;34576;0.000;0.000;2023-01-27T12:47:31;96773.34;;;14.89;58.09
48774;BME280;34576;0.000;0.000;2023-01-27T12:54:32;96777.59;;;14.90;57.86
48774;BME280;34576;0.000;0.000;2023-01-27T13:01:33;96780.78;;;14.92;58.29
48774;BME280;34576;0.000;0.000;2023-01-27T13:08:35;96770.75;;;14.94;58.75
48774;BME280;34576;0.000;0.000;2023-01-27T13:15:37;96760.16;;;14.94;58.60
48774;BME280;34576;0.000;0.000;2023-01-27T13:22:52;96764.38;;;14.95;58.70
48774;BME280;34576;0.000;0.000;2023-01-27T13:29:54;96784.25;;;14.92;58.67
48774;BME280;34576;0.000;0.000;2023-01-27T13:37:12;96782.63;;;14.91;58.19
48774;BME280;34576;0.000;0.000;2023-01-27T13:51:34;96782.91;;;14.90;57.93
48774;BME280;34576;0.000;0.000;2023-01-27T14:05:40;96782.06;;;14.89;57.70
48774;BME280;34576;0.000;0.000;2023-01-27T14:13:29;96786.06;;;14.92;57.99
48774;BME280;34576;0.000;0.000;2023-01-27T14:20:29;96796.13;;;14.90;57.91
48774;BME280;34576;0.000;0.000;2023-01-27T14:27:37;96793.50;;;14.90;58.13
48774;BME280;34576;0.000;0.000;2023-01-27T14:49:11;96820.97;;;14.83;57.74
48774;BME280;34576;0.000;0.000;2023-01-27T14:56:38;96841.88;;;14.80;57.51
48774;BME280;34576;0.000;0.000;2023-01-27T15:10:37;96838.19;;;14.81;57.54
48774;BME280;34576;0.000;0.000;2023-01-27T15:24:53;96841.06;;;14.79;57.66
48774;BME280;34576;0.000;0.000;2023-01-27T15:32:09;96837.34;;;14.80;57.41
48774;BME280;34576;0.000;0.000;2023-01-27T15:46:18;96833.13;;;14.79;57.20
48774;BME280;34576;0.000;0.000;2023-01-27T15:53:22;96838.69;;;14.78;57.36
48774;BME280;34576;0.000;0.000;2023-01-27T16:00:29;96850.84;;;14.79;57.38
48774;BME280;34576;0.000;0.000;2023-01-27T16:07:31;96854.31;;;14.79;57.41
48774;BME280;34576;0.000;0.000;2023-01-27T16:14:36;96863.31;;;14.78;57.00
48774;BME280;34576;0.000;0.000;2023-01-27T16:21:42;96875.50;;;14.79;56.96
48774;BME280;34576;0.000;0.000;2023-01-27T16:28:45;96879.19;;;14.78;56.55
48774;BME280;34576;0.000;0.000;2023-01-27T16:35:57;96887.06;;;14.73;57.10
48774;BME280;34576;0.000;0.000;2023-01-27T16:43:03;96898.47;;;14.74;56.77
48774;BME280;34576;0.000;0.000;2023-01-27T16:50:05;96902.16;;;14.73;56.93
48774;BME280;34576;0.000;0.000;2023-01-27T16:57:06;96884.94;;;14.70;56.83
48774;BME280;34576;0.000;0.000;2023-01-27T17:04:07;96893.44;;;14.72;56.63
48774;BME280;34576;0.000;0.000;2023-01-27T17:18:19;96907.16;;;14.69;56.45
48774;BME280;34576;0.000;0.000;2023-01-27T17:25:26;96915.16;;;14.74;56.99
48774;BME280;34576;0.000;0.000;2023-01-27T17:32:29;96914.66;;;14.77;57.06
48774;BME280;34576;0.000;0.000;2023-01-27T17:39:30;96928.94;;;14.76;56.93
48774;BME280;34576;0.000;0.000;2023-01-27T17:46:31;96930.94;;;14.64;57.78
48774;BME280;34576;0.000;0.000;2023-01-27T17:53:34;96931.41;;;14.61;57.45
48774;BME280;34576;0.000;0.000;2023-01-27T18:00:38;96931.88;;;14.58;57.75
48774;BME280;34576;0.000;0.000;2023-01-27T18:07:40;96940.06;;;14.56;58.23
48774;BME280;34576;0.000;0.000;2023-01-27T18:14:41;96945.59;;;14.55;57.84
48774;BME280;34576;0.000;0.000;2023-01-27T18:21:41;96951.97;;;14.54;58.04
48774;BME280;34576;0.000;0.000;2023-01-27T18:28:41;96955.66;;;14.53;57.86
48774;BME280;34576;0.000;0.000;2023-01-27T18:35:42;96981.88;;;14.54;58.19
48774;BME280;34576;0.000;0.000;2023-01-27T18:42:50;96980.22;;;14.48;57.95
48774;BME280;34576;0.000;0.000;2023-01-27T18:57:09;96982.38;;;14.51;58.03
48774;BME280;34576;0.000;0.000;2023-01-27T19:04:09;96981.53;;;14.67;57.78
48774;BME280;34576;0.000;0.000;2023-01-27T19:11:13;96985.72;;;14.63;57.74
48774;BME280;34576;0.000;0.000;2023-01-27T19:18:16;96981.69;;;14.61;57.88
48774;BME280;34576;0.000;0.000;2023-01-27T19:25:17;96985.97;;;14.62;57.98
48774;BME280;34576;0.000;0.000;2023-01-27T19:32:18;96998.31;;;14.56;58.05
48774;BME280;34576;0.000;0.000;2023-01-27T19:39:18;96993.59;;;14.58;57.66
48774;BME280;34576;0.000;0.000;2023-01-27T19:46:20;96998.06;;;14.58;58.11
48774;BME280;34576;0.000;0.000;2023-01-27T19:53:21;96998.78;;;14.53;58.09
48774;BME280;34576;0.000;0.000;2023-01-27T20:07:24;97000.09;;;14.50;58.31
48774;BME280;34576;0.000;0.000;2023-01-27T20:14:25;97001.44;;;14.53;58.21
48774;BME280;34576;0.000;0.000;2023-01-27T20:21:26;97002.72;;;14.50;58.17
48774;BME280;34576;0.000;0.000;2023-01-27T20:28:26;97014.06;;;14.46;57.90
48774;BME280;34576;0.000;0.000;2023-01-27T20:35:27;97013.31;;;14.50;57.89
48774;BME280;34576;0.000;0.000;2023-01-27T20:42:28;97024.97;;;14.49;58.31
48774;BME280;34576;0.000;0.000;2023-01-27T20:49:28;97025.75;;;14.50;58.31
48774;BME280;34576;0.000;0.000;2023-01-27T20:56:29;97034.03;;;14.54;57.96
48774;BME280;34576;0.000;0.000;2023-01-27T21:03:29;97040.28;;;14.47;57.82
48774;BME280;34576;0.000;0.000;2023-01-27T21:10:30;97031.06;;;14.67;57.81
48774;BME280;34576;0.000;0.000;2023-01-27T21:17:30;97028.03;;;14.80;58.05
48774;BME280;34576;0.000;0.000;2023-01-27T21:24:30;97030.25;;;14.89;58.25
48774;BME280;34576;0.000;0.000;2023-01-27T21:31:31;97029.75;;;14.92;58.49
48774;BME280;34576;0.000;0.000;2023-01-27T21:38:31;97039.94;;;15.00;59.07
48774;BME280;34576;0.000;0.000;2023-01-27T21:45:32;97048.75;;;15.06;59.25
48774;BME280;34576;0.000;0.000;2023-01-27T21:59:32;97032.66;;;15.12;59.33
48774;BME280;34576;0.000;0.000;2023-01-27T22:06:33;97027.41;;;15.17;59.70
48774;BME280;34576;0.000;0.000;2023-01-27T22:13:33;97029.28;;;15.17;59.85
48774;BME280;34576;0.000;0.000;2023-01-27T22:20:34;97027.72;;;15.21;59.72
48774;BME280;34576;0.000;0.000;2023-01-27T22:27:34;97022.69;;;15.19;60.20
48774;BME280;34576;0.000;0.000;2023-01-27T22:34:34;97023.66;;;15.13;59.97
48774;BME280;34576;0.000;0.000;2023-01-27T22:41:35;97032.66;;;15.12;59.83
48774;BME280;34576;0.000;0.000;2023-01-27T22:48:35;97029.19;;;15.12;59.90
48774;BME280;34576;0.000;0.000;2023-01-27T22:55:35;97031.25;;;15.27;59.32
48774;BME280;34576;0.000;0.000;2023-01-27T23:02:36;97023.81;;;15.29;60.53
48774;BME280;34576;0.000;0.000;2023-01-27T23:09:36;97027.91;;;15.36;60.96
48774;BME280;34576;0.000;0.000;2023-01-27T23:16:36;97021.00;;;15.35;61.37
48774;BME280;34576;0.000;0.000;2023-01-27T23:23:36;97029.19;;;15.34;61.74
48774;BME280;34576;0.000;0.000;2023-01-27T23:30:40;97020.19;;;15.35;61.94
48774;BME280;34576;0.000;0.000;2023-01-27T23:37:41;97013.78;;;15.31;62.12
48774;BME280;34576;0.000;0.000;2023-01-27T23:44:41;97006.94;;;15.35;62.19
48774;BME280;34576;0.000;0.000;2023-01-27T23:51:41;97022.84;;;15.35;62.47
48774;BME280;34576;0.000;0.000;2023-01-27T23:58:42;97027.59;;;15.33;62.17
